• Join FlightAware (Why Join?)
  • Login
  • US Flag 
09:41PM EDT


 

Airport Tracker/Info


-or-


 

Live Flight TrackerFlight Track Log ✈ SKW6241 ✈ 01-May-2013 ✈ KSFO - KSAT

Flight Track Log - Related Links

Times and Time Zones

All times are in EDT time to prevent confusion due to time zone crossing. See the SKW6241 flight status page for this flight to view local times or setup timezone preferences in your user account.

Time Position Orientation Groundspeed Altitude Reporting Facility
EDT Latitude Longitude Course Direction KTS MPH feet Rate Location/Type
05:15PM 37.6333 -122.3500 69° East 169 194 1,000  Level Northern Cal TRACON
05:16PM 37.6833 -122.3000 38° Northeast 205 236 2,800 2,100 Climbing Northern Cal TRACON
05:17PM 37.7122 -122.2561 50° Northeast 218 251 5,000 2,280 Climbing Oakland Center
05:18PM 37.6497 -122.2513 72° East  Level FlightAware Approximate
05:18PM 37.7436 -122.1775 63° Northeast 254 292 7,200  Level Oakland Center
05:19PM 37.7014 -122.0958 67° East  Level FlightAware Approximate
05:19PM 37.7689 -122.0917 70° East 259 298 9,400  Level Oakland Center
05:20PM 37.7517 -121.9390 69° East  Level FlightAware Approximate
05:20PM 37.7953 -121.9956 71° East 281 323 10,800  Level Oakland Center
05:21PM 37.8272 -121.8867 70° East 320 368 12,600 1,740 Climbing Oakland Center
05:22PM 37.8597 -121.7742 70° East 341 392 14,400 1,920 Climbing Oakland Center
05:23PM 37.8992 -121.6328 70° East 354 407 16,600 1,800 Climbing Oakland Center
05:24PM 37.9194 -121.5053 79° East 369 425 18,200 1,140 Climbing Oakland Center
05:25PM 37.9417 -121.3689 78° East 383 441 19,000 360 Climbing Oakland Center
05:26PM 37.9644 -121.2303 78° East 399 459 19,000 960 Level Oakland Center
05:27PM 37.9864 -121.0897 79° East 408 470 21,000 1,260 Climbing Oakland Center
05:28PM 38.0083 -120.9467 79° East 417 480 21,700 900 Climbing Oakland Center
05:29PM 38.0325 -120.7992 78° East 429 494 22,900 1,200 Climbing Oakland Center
05:30PM 38.0553 -120.6494 79° East 435 501 24,200 1,440 Climbing Oakland Center
05:31PM 38.0833 -120.4703 79° East 434 499 25,900 1,260 Climbing Oakland Center
05:32PM 38.1056 -120.3178 79° East 440 506 26,800 1,140 Climbing Oakland Center
05:33PM 38.1289 -120.1661 79° East 440 506 28,300 1,320 Climbing Oakland Center
05:34PM 38.1544 -120.0161 78° East 437 503 29,600 1,260 Climbing Oakland Center
05:35PM 38.1739 -119.8681 80° East 430 495 31,000 840 Climbing Oakland Center
05:36PM 38.1944 -119.7178 80° East 433 498 31,400 420 Climbing Oakland Center
05:37PM 38.2183 -119.5611 79° East 450 518 31,900 480 Climbing Oakland Center
05:38PM 38.2428 -119.3881 80° East 460 529 32,500 480 Climbing Oakland Center
05:39PM 38.2647 -119.2261 80° East 465 535 33,000 480 Climbing Oakland Center
05:40PM 38.2886 -119.0617 79° East 474 545 33,500 480 Climbing Oakland Center
05:41PM 38.3114 -118.8958 80° East 478 550 34,000 540 Climbing Oakland Center
05:42PM 38.3389 -118.6947 80° East 483 556 34,600 480 Climbing Oakland Center
05:43PM 38.3619 -118.5283 80° East 481 554 35,000 180 Climbing Oakland Center
05:44PM 38.3836 -118.3600 81° East 483 556 35,000  Level Oakland Center
05:45PM 38.4064 -118.1900 80° East 488 562 35,000  Level Oakland Center
05:46PM 38.4283 -118.0228 80° East 483 556 35,000  Level Oakland Center
05:47PM 38.4489 -117.8564 81° East 477 549 35,000  Level Oakland Center
05:48PM 38.4700 -117.6942 81° East 466 536 35,000  Level Oakland Center
05:50PM 38.4911 -117.5342 80° East 456 525 35,000  Level Oakland Center
05:51PM 38.5103 -117.3722 81° East 456 525 35,000  Level Oakland Center
05:52PM 38.5169 -117.2061 87° East 467 537 35,000  Level Oakland Center
05:53PM 38.5122 -117.0353 92° East 477 549 35,000  Level Oakland Center
05:54PM 38.5064 -116.8297 92° East 478 550 35,000 60 Level Oakland Center
05:55PM 38.5003 -116.6561 93° East 485 558 35,200 300 Climbing Oakland Center
05:56PM 38.4944 -116.4814 92° East 488 562 35,700 480 Climbing Salt Lake Center
05:57PM 38.4886 -116.3072 92° East 491 565 36,200 480 Climbing Oakland Center
05:58PM 38.4814 -116.1342 93° East 489 563 36,700 360 Climbing Oakland Center
05:59PM 38.4753 -115.9608 93° East 488 562 37,000 120 Climbing Salt Lake Center
06:00PM 38.4683 -115.7839 93° East 496 571 37,000  Level Salt Lake Center
06:01PM 38.4603 -115.6078 93° East 497 572 37,000  Level Salt Lake Center
06:02PM 38.4539 -115.4333 93° East 493 567 37,000  Level Salt Lake Center
06:03PM 38.4447 -115.2236 93° East 491 565 37,000  Level Salt Lake Center
06:04PM 38.4364 -115.0544 94° East 483 556 37,000  Level Salt Lake Center
06:05PM 38.4286 -114.8850 93° East 480 552 37,000  Level Salt Lake Center
06:06PM 38.4206 -114.7172 93° East 476 548 37,000  Level Salt Lake Center
06:07PM 38.4108 -114.5519 94° East 470 541 37,000  Level Salt Lake Center
06:08PM 38.4025 -114.3872 94° East 468 539 37,000  Level Salt Lake Center
06:09PM 38.3678 -114.2256 105° East 478 550 37,000  Level Salt Lake Center
06:10PM 38.3103 -114.0350 111° Southeast 483 556 37,000  Level Salt Lake Center
06:11PM 38.2619 -113.8758 111° Southeast 481 554 37,000  Level Salt Lake Center
06:12PM 38.2147 -113.7164 111° Southeast 482 555 37,000  Level Salt Lake Center
06:13PM 38.1656 -113.5567 111° Southeast 484 557 37,000  Level Salt Lake Center
06:14PM 38.1161 -113.3986 112° Southeast 484 557 37,000  Level Salt Lake Center
06:15PM 38.0658 -113.2386 112° Southeast 487 560 37,000  Level Salt Lake Center
06:16PM 38.0167 -113.0783 111° Southeast 487 560 37,000  Level Salt Lake Center
06:17PM 37.9661 -112.9167 112° Southeast 490 564 37,000  Level Salt Lake Center
06:18PM 37.9150 -112.7536 112° Southeast 492 566 37,000  Level Salt Lake Center
06:19PM 37.8514 -112.5575 112° Southeast 496 571 37,000  Level Salt Lake Center
06:20PM 37.7994 -112.3933 112° Southeast 498 573 37,000  Level Salt Lake Center
06:21PM 37.7464 -112.2297 112° Southeast 500 575 37,000  Level Salt Lake Center
06:22PM 37.6928 -112.0650 112° Southeast 505 581 37,000  Level Salt Lake Center
06:23PM 37.6400 -111.9006 112° Southeast 505 581 37,000  Level Salt Lake Center
06:24PM 37.5847 -111.7344 113° Southeast 511 588 37,000  Level Denver Center
06:25PM 37.5303 -111.5686 112° Southeast 512 589 37,000  Level Denver Center
06:26PM 37.4769 -111.4033 112° Southeast 511 588 37,000  Level Denver Center
06:28PM 37.4217 -111.2403 113° Southeast 508 585 37,000  Level Denver Center
06:29PM 37.3547 -111.0414 113° Southeast 515 593 37,000  Level Denver Center
06:30PM 37.2994 -110.8761 113° Southeast 514 592 37,000  Level Denver Center
06:31PM 37.2428 -110.7100 113° Southeast 518 596 37,000  Level Denver Center
06:32PM 37.1867 -110.5444 113° Southeast 516 594 37,000  Level Denver Center
06:33PM 37.1294 -110.3794 113° Southeast 517 595 37,000  Level Denver Center
06:34PM 37.0747 -110.2144 113° Southeast 514 592 37,000  Level Denver Center
06:35PM 37.0081 -110.0264 114° Southeast 513 590 37,000  Level Denver Center
06:36PM 36.9322 -109.8847 124° Southeast 512 589 37,100  Climbing Denver Center
06:37PM 36.8394 -109.7222 125° Southeast 513 590 37,000 -60 Descending Denver Center
06:38PM 36.7597 -109.5842 126° Southeast 511 588 37,000  Level Denver Center
06:39PM 36.6658 -109.4228 126° Southeast 513 590 37,000  Level Denver Center
06:40PM 36.5869 -109.2864 126° Southeast 508 585 37,000  Level Denver Center
06:41PM 36.4944 -109.1269 126° Southeast 508 585 37,000  Level Denver Center
06:42PM 36.4147 -108.9908 126° Southeast 506 582 37,000  Level Denver Center
06:43PM 36.3333 -108.8553 127° Southeast 508 585 37,000  Level Denver Center
06:44PM 36.2400 -108.6936 126° Southeast 508 585 37,000  Level Denver Center
06:45PM 36.1578 -108.5564 127° Southeast 511 588 37,000  Level Denver Center
06:46PM 36.1164 -108.4892 127° Southeast 511 588 37,000  Level Albuquerque Center
06:47PM 36.0367 -108.3550 126° Southeast 506 582 37,000  Level Albuquerque Center
06:48PM 35.9411 -108.1972 127° Southeast 509 586 37,000  Level Albuquerque Center
06:49PM 35.8594 -108.0636 127° Southeast 509 586 37,000  Level Albuquerque Center
06:50PM 35.7669 -107.9094 126° Southeast 503 579 37,000  Level Albuquerque Center
06:51PM 35.6869 -107.7778 127° Southeast 500 575 37,000  Level Albuquerque Center
06:52PM 35.5936 -107.6250 127° Southeast 499 574 37,000  Level Albuquerque Center
06:53PM 35.5142 -107.4969 127° Southeast 495 570 37,000  Level Albuquerque Center
06:54PM 35.4350 -107.3664 127° Southeast 496 571 37,000  Level Albuquerque Center
06:55PM 35.3489 -107.2275 127° Southeast 492 566 37,000  Level Albuquerque Center
06:56PM 35.2633 -107.0886 127° Southeast 492 566 37,000  Level Albuquerque Center
06:57PM 35.1706 -106.9411 128° Southeast 489 563 37,000  Level Albuquerque Center
06:58PM 35.0925 -106.8164 127° Southeast 485 558 37,000  Level Albuquerque Center
06:59PM 35.0114 -106.6931 129° Southeast 485 558 37,000  Level Albuquerque Center
07:00PM 34.9194 -106.5458 127° Southeast 486 559 37,000  Level Albuquerque Center
07:01PM 34.8428 -106.4231 127° Southeast 496 571 37,000  Level Albuquerque Center
07:02PM 34.7608 -106.2950 128° Southeast 485 558 37,000  Level Albuquerque Center
07:03PM 34.6703 -106.1547 128° Southeast 482 555 37,000  Level Albuquerque Center
07:04PM 34.5900 -106.0258 127° Southeast 478 550 37,000  Level Albuquerque Center
07:05PM 34.4936 -105.8778 128° Southeast 476 548 37,000  Level Albuquerque Center
07:06PM 34.4125 -105.7508 128° Southeast 474 545 37,000  Level Albuquerque Center
07:07PM 34.3242 -105.6342 132° Southeast 465 535 37,000  Level Albuquerque Center
07:08PM 34.2269 -105.5344 140° Southeast 456 525 37,000  Level Albuquerque Center
07:09PM 34.1275 -105.4325 140° Southeast 460 529 37,100  Climbing Albuquerque Center
07:10PM 34.0247 -105.3258 139° Southeast 472 543 37,100 -60 Level Albuquerque Center
07:11PM 33.9081 -105.2058 140° Southeast 493 567 37,000 -60 Descending Albuquerque Center
07:12PM 33.8000 -105.0947 139° Southeast 476 548 37,000  Level Albuquerque Center
07:13PM 33.7006 -104.9933 140° Southeast 469 540 37,000  Level Albuquerque Center
07:14PM 33.6031 -104.8933 139° Southeast 463 533 37,000  Level Albuquerque Center
07:15PM 33.5172 -104.7808 132° Southeast 458 527 37,000  Level Albuquerque Center
07:16PM 33.4319 -104.6528 129° Southeast 455 524 37,000  Level Albuquerque Center
07:17PM 33.3628 -104.5478 128° Southeast 457 526 37,000  Level Albuquerque Center
07:18PM 33.2853 -104.4306 128° Southeast 453 521 37,000  Level Albuquerque Center
07:19PM 33.1933 -104.2944 129° Southeast 454 522 37,000  Level Albuquerque Center
07:20PM 33.1094 -104.1700 129° Southeast 449 517 37,000  Level Albuquerque Center
07:21PM 33.0308 -104.0506 128° Southeast 456 525 37,000  Level Albuquerque Center
07:23PM 32.9497 -103.9322 129° Southeast 461 531 37,000  Level Albuquerque Center
07:24PM 32.8633 -103.8000 128° Southeast 471 542 37,000  Level Albuquerque Center
07:25PM 32.7939 -103.6936 128° Southeast 468 539 37,000  Level Albuquerque Center
07:26PM 32.7136 -103.5708 128° Southeast 470 541 37,000  Level Albuquerque Center
07:27PM 32.6317 -103.4481 128° Southeast 475 547 37,000  Level Albuquerque Center
07:28PM 32.5325 -103.3003 128° Southeast 477 549 37,000  Level Albuquerque Center
07:29PM 32.4514 -103.1803 129° Southeast 472 543 37,000  Level Albuquerque Center
07:30PM 32.3642 -103.0550 129° Southeast 466 536 37,000  Level Fort Worth Center
07:31PM 32.2742 -102.9217 129° Southeast 466 536 37,000  Level Fort Worth Center
07:32PM 32.1939 -102.7992 128° Southeast 466 536 37,000  Level Fort Worth Center
07:33PM 32.1289 -102.7044 129° Southeast 466 536 37,000  Level Fort Worth Center
07:34PM 32.0347 -102.5642 128° Southeast 466 536 37,000  Level Fort Worth Center
07:35PM 31.9561 -102.4422 127° Southeast 466 536 37,000  Level Fort Worth Center
07:36PM 31.8750 -102.3253 129° Southeast 466 536 37,000  Level Fort Worth Center
07:38PM 31.6286 -102.1706 152° Southeast 453 521 37,000  Level Houston Center
07:39PM 31.5075 -102.1286 164° South 455 524 37,000  Level Houston Center
07:40PM 31.3825 -102.0903 165° South 456 525 37,000  Level Houston Center
07:41PM 31.2547 -102.0544 167° South 460 529 37,000  Level Houston Center
07:42PM 31.1053 -102.0075 165° South 458 527 37,000  Level Houston Center
07:43PM 30.9847 -101.9614 162° South 455 524 37,000  Level Houston Center
07:44PM 30.8633 -101.9158 162° South 456 525 37,000  Level Houston Center
07:45PM 30.7417 -101.8697 162° South 459 528 37,000  Level Houston Center
07:46PM 30.6206 -101.8244 162° South 456 525 37,000  Level Houston Center
07:47PM 30.4989 -101.7778 162° South 458 527 37,000  Level Houston Center
07:48PM 30.3636 -101.7247 161° South 459 528 37,000  Level Houston Center
07:49PM 30.2422 -101.6744 160° South 463 533 37,000  Level Houston Center
07:51PM 30.1442 -101.5761 139° Southeast 468 539 37,000  Level Houston Center
07:52PM 30.0883 -101.4422 116° Southeast 464 534 37,000  Level Houston Center
07:53PM 30.0736 -101.2978 97° East 454 522 37,000  Level Houston Center
07:54PM 30.0594 -101.1506 96° East 461 531 37,000  Level Houston Center
07:55PM 30.0419 -100.9736 96° East 462 532 37,000  Level Houston Center
07:56PM 30.0283 -100.8253 96° East 466 536 37,000 -1,020 Level Houston Center
07:57PM 30.0142 -100.6744 96° East 473 544 35,000 -2,160 Descending Houston Center
07:58PM 29.9983 -100.5050 96° East 489 563 32,600 -2,160 Descending Houston Center
07:59PM 29.9842 -100.3731 97° East 471 542 30,600 -2,280 Descending Houston Center
08:00PM 29.9675 -100.2061 97° East 457 526 28,000 -2,280 Descending Houston Center
08:01PM 29.9550 -100.0717 96° East 435 501 25,900 -1,980 Descending Houston Center
08:02PM 29.9406 -99.9381 97° East 425 489 24,000 -960 Descending Houston Center
08:03PM 29.9272 -99.8056 97° East 420 483 24,000 -540 Level Houston Center
08:04PM 29.9128 -99.6772 97° East 411 473 23,000 -1,680 Descending Houston Center
08:05PM 29.8994 -99.5444 97° East 414 476 20,600 -2,640 Descending Houston Center
08:06PM 29.8844 -99.3875 96° East 413 475 17,600 -2,820 Descending Houston Center
08:07PM 29.8700 -99.2794 99° East 415 478 15,500 -2,580 Descending Houston Center
08:08PM 29.8594 -99.1794 97° East 406 467 13,500 -2,400 Descending Houston Center
08:08PM 29.8536 -99.1292 98° East 407 468 12,500 -2,580 Descending Houston Center
08:09PM 29.8442 -99.0536 98° East 401 461 10,900 -2,340 Descending Houston Center
08:09PM 29.8372 -98.9958 98° East 392 451 10,100 -780 Descending Houston Center
08:10PM 29.8056 -98.9233 117° Southeast 326 375 10,000 -240 Descending Houston Center
08:10PM 29.7925 -98.8956 118° Southeast 319 367 9,900 -1,500 Descending Houston Center
08:11PM 29.7619 -98.8344 120° Southeast 306 352 8,500 -1,860 Descending Houston Center
08:11PM 29.7494 -98.8075 118° Southeast 316 364 8,000 -1,620 Descending Houston Center
08:12PM 29.7208 -98.7503 120° Southeast 307 353 6,900 -1,380 Descending Houston Center
08:12PM 29.7086 -98.7247 119° Southeast 299 344 6,600 -1,500 Descending Houston Center
08:13PM 29.6878 -98.6844 121° Southeast 246 283 5,600 -2,460 Descending Houston Center
08:13PM 29.6736 -98.6517 116° Southeast 242 278 4,100 -2,460 Descending Houston Center
08:14PM 29.6531 -98.6261 133° Southeast 208 239 3,100 -1,080 Descending Houston Center
08:14PM 29.6344 -98.6039 134° Southeast 206 237 3,000 -120 Descending Houston Center
08:15PM 29.6178 -98.5847 135° Southeast 190 219 3,000 -540 Level Houston Center
08:15PM 29.5978 -98.5558 129° Southeast 189 217 2,500 -840 Descending Houston Center
08:16PM 29.5819 -98.5383 136° Southeast 135 155 2,000 -720 Descending Houston Center
08:16PM 29.5733 -98.5244 125° Southeast 140 161 1,800 -660 Descending Houston Center
08:17PM 29.5558 -98.5031 133° Southeast 133 153 1,300 -780 Descending Houston Center
08:17PM 29.5467 -98.4894 128° Southeast 135 155 1,000 -960 Descending Houston Center